Sooke, Canada
Current Conditions -  °F | °C
As of 9:00 PM on Saturday 25 Oct 2014 (Local Time) from CYWH Reporting Station
Light Rain Light Rain  
Wind Chill: 52°   Ceiling: 2200
Heat Index: 52°   Visibility: 8mi
Dew Point: 48°   Wind: 24mph
Humidity: 88%   Direction: 260°W
Pressure: 29.42"   Gusts: 35mph
Location:  48.38°N, 123.73°W
Report Text: CYWH 260400Z 26021G30KT 8SM -RA FEW007 BKN022 BKN060 OVC110 11/09 A2942 RMK SF2SC4SC2AC1 LAST OBS/NEXT 261300 UTC SLP964
Loading
Personal Weather Stations






























Interactive Weather Map
Tropical Storm Tracking
New forecast layout! Learn more

10-Day Weather Forecast

Advertisements
Track Severe Weather on mobile